Time,TemperatureF,DewpointF,PressureIn,WindDirection,WindDirectionDegrees,WindSpeedMPH,WindSpeedGustMPH,Humidity,HourlyPrecipIn,Conditions,Clouds,dailyrainin,SolarRadiationWatts/m^2,SoftwareType,DateUTC
2013-08-13 00:01:00,60.0,46.0,-100.00,NW,309,7.0,13.0,60,0.00,,,0.00,0.000000,,2013-08-13 07:01:00,
2013-08-13 00:11:00,60.0,46.0,-100.00,NW,309,7.0,13.0,60,0.00,,,0.00,0.000000,,2013-08-13 07:11:00,
2013-08-13 00:21:00,60.0,46.0,-100.00,NW,309,7.0,13.0,60,0.00,,,0.00,0.000000,,2013-08-13 07:21:00,
2013-08-13 00:33:00,60.0,46.0,-100.00,NW,309,7.0,13.0,60,0.00,,,0.00,0.000000,,2013-08-13 07:33:00,
2013-08-13 00:52:00,60.0,44.0,-100.00,WNW,301,8.0,13.0,56,0.00,,,0.00,0.000000,,2013-08-13 07:52:00,
2013-08-13 01:02:00,60.0,44.0,-100.00,WNW,301,8.0,13.0,56,0.00,,,0.00,0.000000,,2013-08-13 08:02:00,
2013-08-13 01:11:00,60.0,44.0,-100.00,WNW,301,8.0,13.0,56,0.00,,,0.00,0.000000,,2013-08-13 08:11:00,
2013-08-13 01:21:00,60.0,44.0,-100.00,WNW,301,8.0,13.0,56,0.00,,,0.00,0.000000,,2013-08-13 08:21:00,
2013-08-13 01:31:00,60.0,44.0,-100.00,WNW,301,8.0,13.0,56,0.00,,,0.00,0.000000,,2013-08-13 08:31:00,
2013-08-13 01:52:00,60.0,42.0,-100.00,WNW,302,8.0,11.0,52,0.00,,,0.00,0.000000,,2013-08-13 08:52:00,
2013-08-13 02:01:00,60.0,42.0,-100.00,WNW,302,8.0,11.0,52,0.00,,,0.00,0.000000,,2013-08-13 09:01:00,
2013-08-13 02:11:00,60.0,42.0,-100.00,WNW,302,8.0,11.0,52,0.00,,,0.00,0.000000,,2013-08-13 09:11:00,
2013-08-13 02:21:00,60.0,42.0,-100.00,WNW,302,8.0,11.0,52,0.00,,,0.00,0.000000,,2013-08-13 09:21:00,
2013-08-13 02:32:00,60.0,42.0,-100.00,WNW,302,8.0,11.0,52,0.00,,,0.00,0.000000,,2013-08-13 09:32:00,
2013-08-13 09:34:00,67.0,48.0,-100.00,South,172,4.0,6.0,50,0.00,,,0.00,470.000000,,2013-08-13 16:34:00,
2013-08-13 09:54:00,67.0,48.0,-100.00,South,172,4.0,6.0,50,0.00,,,0.00,470.000000,,2013-08-13 16:54:00,
2013-08-13 10:05:00,67.0,48.0,-100.00,South,172,4.0,6.0,50,0.00,,,0.00,470.000000,,2013-08-13 17:05:00,
2013-08-13 10:16:00,67.0,48.0,-100.00,South,172,4.0,6.0,50,0.00,,,0.00,470.000000,,2013-08-13 17:16:00,
2013-08-13 10:27:00,67.0,48.0,-100.00,South,172,4.0,6.0,50,0.00,,,0.00,470.000000,,2013-08-13 17:27:00,
2013-08-13 10:34:00,70.0,48.0,-100.00,South,171,5.0,7.0,46,0.00,,,0.00,637.000000,,2013-08-13 17:34:00,
2013-08-13 11:15:00,70.0,48.0,-100.00,South,171,5.0,7.0,46,0.00,,,0.00,637.000000,,2013-08-13 18:15:00,
2013-08-13 11:25:00,70.0,48.0,-100.00,South,171,5.0,7.0,46,0.00,,,0.00,637.000000,,2013-08-13 18:25:00,
2013-08-13 11:34:00,74.0,47.0,-100.00,South,175,5.0,8.0,39,0.00,,,0.00,768.000000,,2013-08-13 18:34:00,
2013-08-13 11:56:00,74.0,47.0,-100.00,South,175,5.0,8.0,39,0.00,,,0.00,768.000000,,2013-08-13 18:56:00,
2013-08-13 12:04:00,74.0,47.0,-100.00,South,175,5.0,8.0,39,0.00,,,0.00,768.000000,,2013-08-13 19:04:00,
2013-08-13 12:14:00,74.0,47.0,-100.00,South,175,5.0,8.0,39,0.00,,,0.00,768.000000,,2013-08-13 19:14:00,
2013-08-13 12:24:00,74.0,47.0,-100.00,South,175,5.0,8.0,39,0.00,,,0.00,768.000000,,2013-08-13 19:24:00,
2013-08-13 12:55:00,77.0,46.0,-100.00,SE,131,5.0,11.0,33,0.00,,,0.00,846.000000,,2013-08-13 19:55:00,
2013-08-13 13:04:00,77.0,46.0,-100.00,SE,131,5.0,11.0,33,0.00,,,0.00,846.000000,,2013-08-13 20:04:00,
2013-08-13 13:15:00,77.0,46.0,-100.00,SE,131,5.0,11.0,33,0.00,,,0.00,846.000000,,2013-08-13 20:15:00,
2013-08-13 13:22:00,77.0,46.0,-100.00,SE,131,5.0,11.0,33,0.00,,,0.00,846.000000,,2013-08-13 20:22:00,
2013-08-13 13:32:00,77.0,46.0,-100.00,SE,131,5.0,11.0,33,0.00,,,0.00,846.000000,,2013-08-13 20:32:00,
2013-08-13 13:34:00,79.0,41.0,-100.00,ESE,119,6.0,11.0,26,0.00,,,0.00,853.000000,,2013-08-13 20:34:00,
2013-08-13 13:53:00,79.0,41.0,-100.00,ESE,119,6.0,11.0,26,0.00,,,0.00,853.000000,,2013-08-13 20:53:00,
2013-08-13 14:01:00,79.0,41.0,-100.00,ESE,119,6.0,11.0,26,0.00,,,0.00,853.000000,,2013-08-13 21:01:00,
2013-08-13 14:11:00,79.0,41.0,-100.00,ESE,119,6.0,11.0,26,0.00,,,0.00,853.000000,,2013-08-13 21:11:00,
2013-08-13 14:24:00,79.0,41.0,-100.00,ESE,119,6.0,11.0,26,0.00,,,0.00,853.000000,,2013-08-13 21:24:00,
2013-08-13 14:34:00,82.0,38.0,-100.00,ESE,120,5.0,11.0,21,0.00,,,0.00,828.000000,,2013-08-13 21:34:00,
2013-08-13 14:54:00,82.0,38.0,-100.00,ESE,120,5.0,11.0,21,0.00,,,0.00,828.000000,,2013-08-13 21:54:00,
2013-08-13 15:03:00,82.0,38.0,-100.00,ESE,120,5.0,11.0,21,0.00,,,0.00,828.000000,,2013-08-13 22:03:00,
2013-08-13 15:13:00,82.0,38.0,-100.00,ESE,120,5.0,11.0,21,0.00,,,0.00,828.000000,,2013-08-13 22:13:00,
2013-08-13 15:22:00,82.0,38.0,-100.00,ESE,120,5.0,11.0,21,0.00,,,0.00,828.000000,,2013-08-13 22:22:00,
2013-08-13 15:34:00,83.0,38.0,-100.00,SSW,200,6.0,13.0,20,0.00,,,0.00,756.000000,,2013-08-13 22:34:00,
2013-08-13 15:57:00,83.0,38.0,-100.00,SSW,200,6.0,13.0,20,0.00,,,0.00,756.000000,,2013-08-13 22:57:00,
2013-08-13 16:03:00,83.0,38.0,-100.00,SSW,200,6.0,13.0,20,0.00,,,0.00,756.000000,,2013-08-13 23:03:00,
2013-08-13 16:13:00,83.0,38.0,-100.00,SSW,200,6.0,13.0,20,0.00,,,0.00,756.000000,,2013-08-13 23:13:00,
2013-08-13 16:26:00,83.0,38.0,-100.00,SSW,200,6.0,13.0,20,0.00,,,0.00,756.000000,,2013-08-13 23:26:00,
2013-08-13 16:57:00,81.0,36.0,-100.00,NE,50,4.0,10.0,20,0.00,,,0.00,370.000000,,2013-08-13 23:57:00,
2013-08-13 17:03:00,81.0,36.0,-100.00,NE,50,4.0,10.0,20,0.00,,,0.00,370.000000,,2013-08-14 00:03:00,
2013-08-13 17:11:00,81.0,36.0,-100.00,NE,50,4.0,10.0,20,0.00,,,0.00,370.000000,,2013-08-14 00:11:00,
2013-08-13 17:21:00,81.0,36.0,-100.00,NE,50,4.0,10.0,20,0.00,,,0.00,370.000000,,2013-08-14 00:21:00,
2013-08-13 17:31:00,81.0,36.0,-100.00,NE,50,4.0,10.0,20,0.00,,,0.00,370.000000,,2013-08-14 00:31:00,
2013-08-13 17:52:00,80.0,38.0,-100.00,NNE,27,9.0,19.0,22,0.00,,,0.00,273.000000,,2013-08-14 00:52:00,
2013-08-13 18:01:00,80.0,38.0,-100.00,NNE,27,9.0,19.0,22,0.00,,,0.00,273.000000,,2013-08-14 01:01:00,
2013-08-13 18:11:00,80.0,38.0,-100.00,NNE,27,9.0,19.0,22,0.00,,,0.00,273.000000,,2013-08-14 01:11:00,
2013-08-13 18:21:00,80.0,38.0,-100.00,NNE,27,9.0,19.0,22,0.00,,,0.00,273.000000,,2013-08-14 01:21:00,
2013-08-13 18:32:00,80.0,38.0,-100.00,NNE,27,9.0,19.0,22,0.00,,,0.00,273.000000,,2013-08-14 01:32:00,
2013-08-13 18:52:00,79.0,37.0,-100.00,NNE,20,7.0,15.0,22,0.00,,,0.00,308.000000,,2013-08-14 01:52:00,
2013-08-13 19:02:00,79.0,37.0,-100.00,NNE,20,7.0,15.0,22,0.00,,,0.00,308.000000,,2013-08-14 02:02:00,
2013-08-13 19:11:00,79.0,37.0,-100.00,NNE,20,7.0,15.0,22,0.00,,,0.00,308.000000,,2013-08-14 02:11:00,
2013-08-13 19:21:00,79.0,37.0,-100.00,NNE,20,7.0,15.0,22,0.00,,,0.00,308.000000,,2013-08-14 02:21:00,
2013-08-13 19:32:00,79.0,37.0,-100.00,NNE,20,7.0,15.0,22,0.00,,,0.00,308.000000,,2013-08-14 02:32:00,
2013-08-13 19:52:00,75.0,34.0,-100.00,NNE,17,9.0,18.0,22,0.00,,,0.00,93.000000,,2013-08-14 02:52:00,
2013-08-13 20:01:00,75.0,34.0,-100.00,NNE,17,9.0,18.0,22,0.00,,,0.00,93.000000,,2013-08-14 03:01:00,
2013-08-13 20:11:00,75.0,34.0,-100.00,NNE,17,9.0,18.0,22,0.00,,,0.00,93.000000,,2013-08-14 03:11:00,
2013-08-13 20:22:00,75.0,34.0,-100.00,NNE,17,9.0,18.0,22,0.00,,,0.00,93.000000,,2013-08-14 03:22:00,
2013-08-13 20:33:00,75.0,34.0,-100.00,NNE,17,9.0,18.0,22,0.00,,,0.00,93.000000,,2013-08-14 03:33:00,
2013-08-13 20:53:00,72.0,34.0,-100.00,North,2,4.0,14.0,25,0.00,,,0.00,8.000000,,2013-08-14 03:53:00,
2013-08-13 21:03:00,72.0,34.0,-100.00,North,2,4.0,14.0,25,0.00,,,0.00,8.000000,,2013-08-14 04:03:00,
2013-08-13 21:12:00,72.0,34.0,-100.00,North,2,4.0,14.0,25,0.00,,,0.00,8.000000,,2013-08-14 04:12:00,
2013-08-13 21:23:00,72.0,34.0,-100.00,North,2,4.0,14.0,25,0.00,,,0.00,8.000000,,2013-08-14 04:23:00,
2013-08-13 21:32:00,72.0,34.0,-100.00,North,2,4.0,14.0,25,0.00,,,0.00,8.000000,,2013-08-14 04:32:00,
2013-08-13 21:52:00,71.0,37.0,-100.00,North,359,5.0,11.0,29,0.00,,,0.00,0.000000,,2013-08-14 04:52:00,
2013-08-13 22:02:00,71.0,37.0,-100.00,North,359,5.0,11.0,29,0.00,,,0.00,0.000000,,2013-08-14 05:02:00,
2013-08-13 22:12:00,71.0,37.0,-100.00,North,359,5.0,11.0,29,0.00,,,0.00,0.000000,,2013-08-14 05:12:00,
2013-08-13 22:22:00,71.0,37.0,-100.00,North,359,5.0,11.0,29,0.00,,,0.00,0.000000,,2013-08-14 05:22:00,
2013-08-13 22:31:00,71.0,37.0,-100.00,North,359,5.0,11.0,29,0.00,,,0.00,0.000000,,2013-08-14 05:31:00,
2013-08-13 22:52:00,69.0,34.0,-100.00,North,356,4.0,9.0,27,0.00,,,0.00,0.000000,,2013-08-14 05:52:00,
2013-08-13 23:01:00,69.0,34.0,-100.00,North,356,4.0,9.0,27,0.00,,,0.00,0.000000,,2013-08-14 06:01:00,
2013-08-13 23:11:00,69.0,34.0,-100.00,North,356,4.0,9.0,27,0.00,,,0.00,0.000000,,2013-08-14 06:11:00,
2013-08-13 23:21:00,69.0,34.0,-100.00,North,356,4.0,9.0,27,0.00,,,0.00,0.000000,,2013-08-14 06:21:00,
2013-08-13 23:31:00,69.0,34.0,-100.00,North,356,4.0,9.0,27,0.00,,,0.00,0.000000,,2013-08-14 06:31:00,
2013-08-13 23:52:00,69.0,40.0,-100.00,NNW,345,5.0,10.0,35,0.00,,,0.00,0.000000,,2013-08-14 06:52:00,